Time;durP1;ratioP1;P1;durP2;ratioP2;P2;SDS_P1;SDS_P2;PMS_P1;PMS_P2;Temp;Humidity;BMP_temperature;BMP_pressure;BME280_temperature;BME280_humidity;BME280_pressure;Samples;Min_cycle;Max_cycle;Signal;HPM_P1;HPM_P2
2022/02/05 00:00:31;;;;;;;;;5.00;3.75;;;;;5.29;68.39;101552.28;5095757;27;46498;-76
2022/02/05 00:13:38;;;;;;;;;6.00;6.00;;;;;5.33;68.25;101588.19;5096070;27;45899;-76
2022/02/05 00:43:05;;;;;;;;;7.50;7.00;;;;;5.16;68.69;101588.69;5095521;27;45979;-76
2022/02/05 00:45:34;;;;;;;;;6.00;5.25;;;;;5.41;69.11;101635.63;5095532;27;45431;-75
2022/02/05 00:48:01;;;;;;;;;7.25;7.00;;;;;5.44;68.86;101643.66;5095403;27;45398;-76
2022/02/05 00:50:29;;;;;;;;;6.00;5.50;;;;;5.16;69.03;101600.03;5095430;27;45637;-75
2022/02/05 00:53:02;;;;;;;;;8.75;7.00;;;;;5.06;69.08;101578.44;5095088;27;45384;-76
2022/02/05 00:55:32;;;;;;;;;6.00;5.00;;;;;5.28;69.09;101610.41;5094955;27;46001;-76
2022/02/05 00:58:02;;;;;;;;;5.50;3.00;;;;;5.82;68.98;101708.91;5095537;27;45515;-76
2022/02/05 01:00:30;;;;;;;;;4.50;3.25;;;;;5.21;69.23;101596.84;5095338;27;44825;-76
2022/02/05 01:02:57;;;;;;;;;8.50;7.00;;;;;5.36;69.14;101639.59;5095234;27;46222;-76
2022/02/05 01:05:23;;;;;;;;;6.25;6.00;;;;;5.53;69.20;101670.38;5095323;27;45346;-76
2022/02/05 01:07:49;;;;;;;;;5.25;5.00;;;;;5.78;69.24;101711.19;5095208;27;45264;-76
2022/02/05 01:10:15;;;;;;;;;5.75;5.00;;;;;5.04;69.40;101587.84;5094356;27;45408;-76
2022/02/05 01:12:47;;;;;;;;;6.50;6.50;;;;;4.97;69.46;101586.50;5093858;27;46366;-76
2022/02/05 01:15:13;;;;;;;;;8.00;5.75;;;;;5.49;69.34;101678.78;5094843;27;45345;-76
2022/02/05 01:17:45;;;;;;;;;7.25;6.00;;;;;4.91;69.22;101583.47;5095218;27;45486;-76
2022/02/05 01:22:49;;;;;;;;;5.00;5.00;;;;;5.33;69.02;101644.63;5094941;27;45464;-76
2022/02/05 01:25:20;;;;;;;;;8.00;6.00;;;;;5.04;69.20;101607.00;5094358;27;45718;-76
2022/02/05 01:27:53;;;;;;;;;5.50;5.00;;;;;5.13;69.54;101619.78;5094855;27;45511;-76
2022/02/05 01:30:24;;;;;;;;;5.25;5.25;;;;;5.46;69.68;101690.69;5094872;27;45620;-75
2022/02/05 01:35:47;;;;;;;;;5.00;5.00;;;;;5.11;69.22;101650.91;5094681;27;45480;-75
2022/02/05 01:56:57;;;;;;;;;3.75;3.00;;;;;5.11;69.80;101692.59;5094061;27;45725;-75
2022/02/05 02:13:58;;;;;;;;;5.00;3.50;;;;;4.85;69.58;101684.63;5094324;27;45604;-75
2022/02/05 02:15:52;;;;;;;;;5.50;4.50;;;;;4.74;69.79;101664.72;5089453;27;45624;-76
2022/02/05 02:18:38;;;;;;;;;3.00;3.00;;;;;4.70;70.07;101665.28;5094151;27;46128;-76
2022/02/05 02:21:33;;;;;;;;;5.50;5.50;;;;;4.74;69.81;101662.13;5094103;27;45461;-76
2022/02/05 02:24:14;;;;;;;;;2.25;2.00;;;;;5.08;69.74;101721.06;5093530;27;45475;-75
2022/02/05 02:27:04;;;;;;;;;2.50;2.00;;;;;4.80;69.71;101692.09;5093089;27;45601;-75
2022/02/05 02:29:56;;;;;;;;;2.50;2.00;;;;;4.95;70.05;101722.66;5093664;27;45346;-75
2022/02/05 02:32:22;;;;;;;;;2.25;2.00;;;;;4.61;69.83;101653.41;5093947;27;45523;-75
2022/02/05 02:34:51;;;;;;;;;2.50;2.50;;;;;5.25;69.82;101770.88;5093912;27;45541;-75
2022/02/05 02:37:23;;;;;;;;;2.50;2.00;;;;;4.66;69.91;101677.16;5093801;27;45517;-75
2022/02/05 02:40:13;;;;;;;;;2.00;2.00;;;;;4.84;69.95;101712.38;5093341;27;45499;-75
2022/02/05 02:42:43;;;;;;;;;5.00;3.50;;;;;4.60;70.10;101664.63;5093869;27;45626;-75
2022/02/05 02:45:09;;;;;;;;;2.25;2.25;;;;;4.41;70.02;101643.22;5093572;27;45806;-75
2022/02/05 02:47:40;;;;;;;;;4.75;3.00;;;;;4.57;69.93;101672.19;5093389;27;46244;-76
2022/02/05 02:50:12;;;;;;;;;2.00;1.75;;;;;5.05;70.04;101756.41;5093504;27;45690;-76
2022/02/05 02:58:08;;;;;;;;;2.00;2.00;;;;;4.86;69.82;101707.25;5093436;27;45315;-75
2022/02/05 03:00:34;;;;;;;;;2.75;2.75;;;;;4.55;69.94;101672.88;5093437;27;45705;-76
2022/02/05 03:02:59;;;;;;;;;3.50;3.00;;;;;5.04;69.92;101757.19;5093392;27;45458;-76
2022/02/05 03:05:25;;;;;;;;;3.50;3.50;;;;;5.04;69.96;101759.81;5093341;27;45316;-76
2022/02/05 03:07:51;;;;;;;;;2.75;2.50;;;;;4.81;69.82;101729.47;5093087;27;45355;-75
2022/02/05 03:10:17;;;;;;;;;3.00;3.00;;;;;4.77;70.15;101735.25;5093036;27;45751;-76
2022/02/05 03:12:43;;;;;;;;;2.00;2.00;;;;;5.02;69.94;101769.19;5093344;27;45541;-76
2022/02/05 03:15:14;;;;;;;;;3.00;2.75;;;;;5.15;70.01;101787.53;5093570;27;45410;-75
2022/02/05 03:17:53;;;;;;;;;3.00;2.00;;;;;4.36;70.00;101663.72;5093086;27;45696;-75
2022/02/05 03:20:19;;;;;;;;;2.00;2.00;;;;;4.81;70.09;101734.69;5093209;27;45877;-75
2022/02/05 03:22:44;;;;;;;;;2.00;2.00;;;;;4.30;70.06;101657.16;5091746;27;45486;-75
2022/02/05 03:25:10;;;;;;;;;3.00;3.00;;;;;4.98;70.07;101794.13;5092790;27;45532;-75
2022/02/05 03:27:35;;;;;;;;;2.00;1.75;;;;;4.45;69.96;101696.44;5092987;27;45725;-76
2022/02/05 03:30:01;;;;;;;;;3.00;3.00;;;;;5.15;70.07;101813.59;5093003;27;45447;-75
2022/02/05 03:32:26;;;;;;;;;1.50;1.50;;;;;4.50;70.19;101716.78;5093272;27;45575;-76
2022/02/05 03:34:51;;;;;;;;;2.75;2.25;;;;;4.51;70.13;101729.00;5094447;27;45428;-76
2022/02/05 03:37:19;;;;;;;;;3.00;2.00;;;;;4.65;69.98;101749.16;5096680;27;45976;-75
2022/02/05 03:39:44;;;;;;;;;6.00;2.25;;;;;5.19;70.30;101841.69;5096152;27;45937;-75
2022/02/05 03:42:10;;;;;;;;;12.50;12.00;;;;;4.21;70.06;101680.78;5096466;27;46139;-76
2022/02/05 03:44:35;;;;;;;;;11.00;10.00;;;;;5.02;70.05;101829.13;5096429;27;45528;-76
2022/02/05 03:47:01;;;;;;;;;15.00;15.00;;;;;4.63;70.17;101766.38;5096227;27;46118;-75
2022/02/05 03:49:27;;;;;;;;;18.00;16.25;;;;;4.58;70.42;101772.00;5096335;27;45475;-75
2022/02/05 03:51:53;;;;;;;;;16.00;13.75;;;;;4.78;70.39;101803.09;5096402;27;45351;-75
2022/02/05 03:54:20;;;;;;;;;13.75;13.00;;;;;4.26;70.35;101733.19;5096528;27;45705;-76
2022/02/05 03:56:47;;;;;;;;;11.50;10.75;;;;;4.42;70.61;101767.38;5096258;27;45463;-76
2022/02/05 03:59:13;;;;;;;;;11.25;9.50;;;;;4.34;70.48;101752.88;5096118;27;45459;-76
2022/02/05 04:01:38;;;;;;;;;10.00;10.00;;;;;4.23;70.21;101730.34;5096185;27;45615;-76
2022/02/05 04:04:04;;;;;;;;;11.25;9.50;;;;;4.14;70.40;101739.28;5096153;27;45607;-75
2022/02/05 04:06:29;;;;;;;;;14.25;10.75;;;;;4.08;70.04;101741.38;5095890;27;45696;-75
2022/02/05 04:08:58;;;;;;;;;7.00;7.00;;;;;4.57;70.27;101824.88;5096152;27;45873;-76
2022/02/05 04:16:40;;;;;;;;;10.25;10.00;;;;;4.17;70.72;101775.00;5095805;27;45770;-75
2022/02/05 04:19:05;;;;;;;;;9.75;8.50;;;;;4.43;70.42;101812.50;5095894;27;45533;-76
2022/02/05 04:21:32;;;;;;;;;9.50;8.25;;;;;4.21;70.29;101789.16;5095986;27;45691;-76
2022/02/05 04:24:00;;;;;;;;;11.00;10.00;;;;;4.41;70.34;101815.00;5095984;27;45464;-75
2022/02/05 04:26:26;;;;;;;;;7.50;7.25;;;;;3.96;70.45;101757.75;5093850;27;48039;-75
2022/02/05 04:28:51;;;;;;;;;9.25;6.75;;;;;4.05;70.81;101769.78;5095768;27;45463;-76
2022/02/05 04:31:17;;;;;;;;;9.00;7.00;;;;;3.85;70.87;101749.13;5096014;27;45317;-76
2022/02/05 04:33:43;;;;;;;;;13.50;10.00;;;;;3.99;70.86;101777.13;5095814;27;45541;-76
2022/02/05 04:36:09;;;;;;;;;11.25;10.75;;;;;3.80;70.85;101745.28;5095328;27;45591;-75
2022/02/05 04:38:36;;;;;;;;;9.00;7.00;;;;;3.81;71.05;101741.88;5095536;27;45423;-76
2022/02/05 04:41:12;;;;;;;;;7.75;7.75;;;;;3.90;71.28;101763.41;5095261;27;45283;-76
2022/02/05 04:46:31;;;;;;;;;10.25;8.50;;;;;4.39;71.33;101847.84;5095047;27;45313;-76
2022/02/05 05:04:24;;;;;;;;;11.00;10.50;;;;;3.84;71.07;101799.31;5095337;27;45432;-76
2022/02/05 05:09:55;;;;;;;;;10.25;8.50;;;;;3.88;71.30;101807.47;5111988;27;45348;-76
2022/02/05 05:20:23;;;;;;;;;9.75;9.00;;;;;3.41;71.13;101728.38;5112821;27;45252;-75
2022/02/05 05:22:49;;;;;;;;;8.50;7.25;;;;;4.11;71.51;101850.88;5112899;27;45075;-75
2022/02/05 05:25:15;;;;;;;;;9.00;6.50;;;;;3.55;71.49;101753.75;5112654;27;44863;-75
2022/02/05 05:27:41;;;;;;;;;9.75;7.25;;;;;3.79;71.54;101795.44;5112688;27;46231;-75
2022/02/05 05:30:07;;;;;;;;;10.00;5.25;;;;;3.57;71.67;101772.97;5113055;27;44999;-75
2022/02/05 05:32:33;;;;;;;;;6.25;6.00;;;;;3.86;71.78;101815.94;5112243;27;44867;-76
2022/02/05 05:34:58;;;;;;;;;5.75;5.00;;;;;3.67;71.80;101781.50;5112966;27;45125;-75
2022/02/05 05:37:23;;;;;;;;;10.75;7.25;;;;;3.97;71.54;101833.28;5112345;27;45160;-76
2022/02/05 05:39:50;;;;;;;;;3.00;2.00;;;;;3.74;71.36;101794.16;5112481;27;45338;-76
2022/02/05 05:42:30;;;;;;;;;7.25;7.25;;;;;3.98;71.60;101829.00;5112813;27;45173;-76
2022/02/05 05:52:19;;;;;;;;;6.75;6.00;;;;;3.47;71.48;101761.72;5110877;27;45047;-75
2022/02/05 05:54:44;;;;;;;;;6.00;6.00;;;;;3.72;71.86;101806.16;5112254;27;45066;-75
2022/02/05 05:57:10;;;;;;;;;5.00;4.50;;;;;3.60;71.29;101790.50;5111826;27;45097;-75
2022/02/05 05:59:38;;;;;;;;;6.75;3.00;;;;;3.61;72.06;101794.91;5112823;27;45337;-76
2022/02/05 06:02:04;;;;;;;;;7.50;5.50;;;;;3.74;71.89;101810.69;5110158;27;45173;-76
2022/02/05 06:04:29;;;;;;;;;6.00;6.00;;;;;3.57;72.15;101788.56;5105069;27;45328;-75
2022/02/05 06:06:55;;;;;;;;;5.25;4.50;;;;;3.75;72.00;101822.91;5106018;27;46048;-76
2022/02/05 06:09:20;;;;;;;;;6.75;4.50;;;;;3.59;71.94;101807.75;5100087;27;45347;-75
2022/02/05 06:11:45;;;;;;;;;3.67;3.00;;;;;3.28;72.11;101738.56;5106786;27;45358;-75
2022/02/05 06:14:13;;;;;;;;;2.75;2.75;;;;;3.52;72.06;101782.09;5098766;27;45165;-76
2022/02/05 06:16:38;;;;;;;;;2.00;2.00;;;;;3.50;72.19;101781.06;5111354;27;45806;-76
2022/02/05 06:19:03;;;;;;;;;5.00;5.00;;;;;3.95;72.12;101857.38;5099238;27;45504;-76
2022/02/05 06:21:29;;;;;;;;;5.75;5.75;;;;;3.85;72.18;101854.06;5092718;27;45705;-76
2022/02/05 06:23:54;;;;;;;;;5.00;4.00;;;;;3.46;72.11;101784.22;5093741;27;45592;-76
2022/02/05 06:26:20;;;;;;;;;4.00;4.00;;;;;3.60;72.02;101809.59;5093536;27;46463;-76
2022/02/05 06:28:45;;;;;;;;;5.25;5.25;;;;;3.72;72.06;101846.06;5090911;27;45348;-76
2022/02/05 06:31:11;;;;;;;;;5.00;5.00;;;;;3.40;71.94;101798.38;5093879;27;45441;-75
2022/02/05 06:33:36;;;;;;;;;6.00;6.00;;;;;3.67;72.36;101844.78;5093995;27;45252;-76
2022/02/05 06:36:01;;;;;;;;;7.00;6.00;;;;;3.45;72.09;101818.78;5092227;27;48178;-75
2022/02/05 06:38:27;;;;;;;;;9.00;6.25;;;;;3.59;72.39;101833.75;5090479;27;45614;-76
2022/02/05 06:40:53;;;;;;;;;6.67;6.33;;;;;4.16;72.45;101936.19;5104868;27;45483;-76
2022/02/05 06:43:19;;;;;;;;;5.00;4.00;;;;;4.15;72.61;101922.28;5110898;27;45177;-75
2022/02/05 06:45:44;;;;;;;;;6.00;5.50;;;;;4.14;72.67;101928.28;5111673;27;45939;-75
2022/02/05 06:48:10;;;;;;;;;7.75;5.75;;;;;3.90;72.62;101888.22;5110935;27;45191;-76
2022/02/05 06:50:36;;;;;;;;;9.00;9.00;;;;;3.37;72.59;101814.66;5106280;27;44995;-75
2022/02/05 06:53:02;;;;;;;;;9.00;8.00;;;;;3.87;72.61;101909.69;5100465;27;45203;-75
2022/02/05 06:55:28;;;;;;;;;8.50;6.75;;;;;3.44;72.75;101831.63;5105778;27;45892;-75
2022/02/05 06:57:53;;;;;;;;;5.00;3.25;;;;;3.43;72.67;101835.94;5105823;27;45188;-76
2022/02/05 07:00:19;;;;;;;;;7.50;5.25;;;;;3.63;72.62;101872.22;5111384;27;45112;-76
2022/02/05 07:02:45;;;;;;;;;5.00;5.00;;;;;3.76;72.94;101894.00;5111392;27;45261;-75
2022/02/05 07:05:11;;;;;;;;;1.00;1.00;;;;;4.13;72.87;101960.25;5109302;27;45865;-76
2022/02/05 07:07:37;;;;;;;;;6.75;6.75;;;;;4.06;72.62;101943.28;5111288;27;45283;-76
2022/02/05 07:10:03;;;;;;;;;5.50;5.50;;;;;3.42;72.47;101835.81;5113996;27;44929;-76
2022/02/05 07:12:29;;;;;;;;;7.00;6.75;;;;;4.01;72.88;101933.28;5114822;27;45016;-75
2022/02/05 07:15:09;;;;;;;;;9.25;6.00;;;;;3.34;72.74;101811.78;5115087;27;45569;-76
2022/02/05 07:20:25;;;;;;;;;9.75;9.50;;;;;3.53;72.84;101851.47;5114981;27;45401;-76
2022/02/05 07:23:21;;;;;;;;;10.50;9.75;;;;;3.46;72.61;101851.78;5112671;27;45055;-76
2022/02/05 07:29:20;;;;;;;;;13.00;11.00;;;;;3.97;73.39;101926.94;5114994;27;45007;-76
2022/02/05 07:31:17;;;;;;;;;8.50;8.50;;;;;3.78;73.06;101884.63;5096936;27;45458;-76
2022/02/05 07:33:43;;;;;;;;;10.00;8.50;;;;;3.61;73.15;101855.59;5105441;27;45464;-75
2022/02/05 07:36:11;;;;;;;;;12.75;10.25;;;;;3.65;73.14;101863.66;5109617;27;45564;-75
2022/02/05 07:38:36;;;;;;;;;6.00;6.00;;;;;4.11;72.62;101941.03;5089637;27;45605;-77
2022/02/05 07:41:02;;;;;;;;;4.00;3.00;;;;;4.18;73.13;101948.53;5099283;27;45433;-75
2022/02/05 07:43:29;;;;;;;;;2.00;2.00;;;;;3.98;73.28;101876.72;5096672;27;45524;-75
2022/02/05 07:45:55;;;;;;;;;5.50;5.00;;;;;4.70;72.92;101996.00;5096383;27;45542;-75
2022/02/05 07:48:21;;;;;;;;;5.50;5.00;;;;;4.08;72.94;101863.66;5097998;27;45373;-75
2022/02/05 07:50:47;;;;;;;;;6.50;5.75;;;;;4.75;72.80;101947.78;5094184;27;45505;-75
2022/02/05 07:53:12;;;;;;;;;5.75;3.00;;;;;4.82;72.27;101947.44;5095048;27;45478;-75
2022/02/05 07:55:37;;;;;;;;;3.00;2.25;;;;;4.60;72.21;101911.94;5095978;27;45398;-76
2022/02/05 07:58:03;;;;;;;;;3.00;3.00;;;;;5.03;71.96;102001.22;5096563;27;45460;-82
2022/02/05 08:00:28;;;;;;;;;5.00;4.50;;;;;4.00;71.74;101841.34;5094897;27;45485;-76
2022/02/05 08:02:57;;;;;;;;;5.50;5.25;;;;;4.18;72.04;101899.09;5086408;27;45443;-81
2022/02/05 08:05:22;;;;;;;;;5.00;5.00;;;;;4.19;72.28;101911.34;5091097;27;45846;-78
2022/02/05 08:07:48;;;;;;;;;6.50;5.50;;;;;4.20;72.25;101920.06;5096492;27;45495;-76
2022/02/05 08:10:15;;;;;;;;;5.25;5.00;;;;;3.85;72.09;101872.25;5096578;27;45339;-76
2022/02/05 08:12:47;;;;;;;;;8.50;6.50;;;;;4.45;72.63;101970.63;5085602;27;45622;-82
2022/02/05 08:15:17;;;;;;;;;5.25;5.00;;;;;4.46;72.46;101981.94;5094727;27;48434;-77
2022/02/05 08:17:42;;;;;;;;;6.00;5.25;;;;;4.47;72.39;101971.66;5098184;27;45503;-76
2022/02/05 08:20:08;;;;;;;;;6.25;6.25;;;;;3.95;72.39;101889.50;5094690;27;45307;-76
2022/02/05 08:22:33;;;;;;;;;6.25;5.50;;;;;3.74;72.72;101849.66;5095463;27;45313;-76
2022/02/05 08:24:59;;;;;;;;;6.75;6.25;;;;;3.74;72.58;101840.97;5086786;27;47089;-83
2022/02/05 08:27:24;;;;;;;;;9.00;7.00;;;;;4.39;72.67;101954.53;5087595;27;45782;-76
2022/02/05 08:30:02;;;;;;;;;5.00;5.00;;;;;4.06;72.63;101875.63;5094839;27;45702;-76
2022/02/05 08:32:28;;;;;;;;;10.00;9.00;;;;;4.11;72.95;101884.72;5075834;27;45567;-76
2022/02/05 08:34:57;;;;;;;;;14.50;10.50;;;;;4.69;72.83;101952.53;5075253;27;45580;-79
2022/02/05 08:37:22;;;;;;;;;13.25;12.00;;;;;4.73;72.87;101946.72;5095046;27;45391;-76
2022/02/05 08:39:48;;;;;;;;;10.50;7.50;;;;;4.74;72.83;101954.69;5095322;27;45877;-77
2022/02/05 08:42:13;;;;;;;;;10.00;6.75;;;;;4.58;72.59;101905.72;5095440;27;46043;-78
2022/02/05 08:44:39;;;;;;;;;10.25;7.25;;;;;4.53;72.76;101903.53;5092290;27;46626;-77
2022/02/05 08:47:04;;;;;;;;;8.00;7.00;;;;;4.10;73.16;101838.69;5105614;27;45208;-75
2022/02/05 08:49:30;;;;;;;;;7.50;6.75;;;;;4.40;72.55;101881.78;5096965;27;45393;-76
2022/02/05 08:51:59;;;;;;;;;8.25;7.00;;;;;4.38;72.81;101866.81;5099874;27;45219;-75
2022/02/05 08:54:25;;;;;;;;;11.25;11.00;;;;;4.82;72.86;101940.53;5104584;27;45839;-75
2022/02/05 08:56:53;;;;;;;;;5.75;5.00;;;;;4.37;72.84;101838.97;5086396;27;46536;-75
2022/02/05 08:59:19;;;;;;;;;4.50;3.00;;;;;4.43;72.54;101854.16;5093616;27;45570;-74
2022/02/05 09:02:07;;;;;;;;;5.00;4.50;;;;;4.77;72.56;101904.50;5093499;27;45506;-75
2022/02/05 09:04:49;;;;;;;;;6.00;5.25;;;;;5.08;72.30;101952.97;5093431;27;45592;-75
2022/02/05 09:07:14;;;;;;;;;6.25;4.50;;;;;5.08;72.45;101959.88;5093243;27;45403;-75
2022/02/05 09:14:43;;;;;;;;;3.25;3.25;;;;;5.31;72.46;101972.91;5093457;27;45907;-75
2022/02/05 09:17:09;;;;;;;;;6.00;4.50;;;;;5.32;72.44;101961.72;5093812;27;45863;-75
2022/02/05 09:19:35;;;;;;;;;7.00;6.00;;;;;5.04;72.44;101913.53;5094579;27;45723;-75
2022/02/05 09:22:02;;;;;;;;;8.25;7.00;;;;;4.96;72.84;101893.78;5094772;27;45394;-75
2022/02/05 09:24:27;;;;;;;;;6.50;6.25;;;;;5.01;72.63;101906.38;5094684;27;46659;-74
2022/02/05 09:27:02;;;;;;;;;5.67;5.00;;;;;5.25;72.54;101925.56;5094569;27;45525;-75
2022/02/05 09:29:31;;;;;;;;;6.25;6.00;;;;;5.16;72.42;101917.94;5094755;27;45397;-75
2022/02/05 09:31:57;;;;;;;;;7.00;7.00;;;;;5.50;72.48;101970.00;5093734;27;45480;-74
2022/02/05 09:34:22;;;;;;;;;6.75;6.75;;;;;5.68;72.28;101986.09;5094732;27;45344;-75
2022/02/05 09:36:48;;;;;;;;;4.75;3.00;;;;;5.36;72.07;101926.34;5094625;27;45542;-75
2022/02/05 09:39:14;;;;;;;;;6.50;5.50;;;;;5.39;72.44;101914.44;5094859;27;45666;-74
2022/02/05 09:41:41;;;;;;;;;9.00;8.00;;;;;6.04;72.30;102015.72;5094521;27;45491;-74
2022/02/05 09:44:07;;;;;;;;;9.75;9.50;;;;;5.32;72.31;101882.59;5094662;27;46258;-75
2022/02/05 09:46:33;;;;;;;;;7.50;7.50;;;;;6.05;72.06;102005.38;5094527;27;46012;-75
2022/02/05 09:48:59;;;;;;;;;8.25;6.75;;;;;5.49;72.12;101883.84;5094496;27;45318;-75
2022/02/05 09:51:33;;;;;;;;;5.50;4.50;;;;;5.95;71.96;101950.72;5094419;27;45468;-75
2022/02/05 09:54:03;;;;;;;;;6.00;5.00;;;;;5.67;71.84;101901.75;5094326;27;45407;-75
2022/02/05 09:56:30;;;;;;;;;5.25;3.00;;;;;6.26;71.95;101973.81;5094116;27;45409;-74
2022/02/05 09:58:57;;;;;;;;;2.25;2.25;;;;;6.22;71.79;101963.97;5094819;27;45563;-74
2022/02/05 10:01:23;;;;;;;;;6.25;5.00;;;;;5.72;71.82;101873.38;5094469;27;45459;-75
2022/02/05 10:03:50;;;;;;;;;4.50;3.00;;;;;6.37;71.89;101971.16;5094391;27;45569;-75
2022/02/05 10:06:26;;;;;;;;;3.00;3.00;;;;;6.67;71.79;102015.94;5097345;27;45334;-77
2022/02/05 10:08:58;;;;;;;;;8.00;6.00;;;;;6.76;71.68;102021.81;5103245;27;45316;-76
2022/02/05 10:11:23;;;;;;;;;6.00;6.00;;;;;6.33;71.76;101929.97;5094442;27;45470;-77
2022/02/05 10:13:49;;;;;;;;;10.25;7.75;;;;;6.45;71.81;101927.31;5093853;27;46269;-75
2022/02/05 10:16:15;;;;;;;;;8.00;7.00;;;;;6.63;71.50;101957.31;5100030;27;45476;-75
2022/02/05 10:18:43;;;;;;;;;3.00;2.25;;;;;6.45;71.37;101906.41;5098232;27;45354;-76
2022/02/05 10:21:27;;;;;;;;;9.75;8.00;;;;;6.56;71.66;101894.13;5107114;27;45391;-76
2022/02/05 10:23:55;;;;;;;;;10.00;8.50;;;;;6.60;71.27;101904.88;5104007;27;45297;-75
2022/02/05 10:26:34;;;;;;;;;8.00;7.00;;;;;6.61;71.03;101887.50;5100172;27;45661;-76
2022/02/05 10:29:14;;;;;;;;;6.00;6.00;;;;;6.76;70.70;101913.78;5105743;27;45459;-76
2022/02/05 10:32:08;;;;;;;;;7.00;6.75;;;;;7.52;70.78;102028.75;5093939;27;45468;-76
2022/02/05 10:34:59;;;;;;;;;3.00;3.00;;;;;6.88;70.48;101919.81;5093716;27;45499;-78
2022/02/05 10:37:29;;;;;;;;;6.25;6.00;;;;;6.77;70.41;101879.00;5097359;27;45248;-75
2022/02/05 10:45:13;;;;;;;;;5.75;4.50;;;;;7.75;70.24;102036.44;5093919;27;45954;-77
2022/02/05 10:47:50;;;;;;;;;5.00;4.00;;;;;7.86;70.18;102039.78;5096891;27;45576;-78
2022/02/05 10:50:19;;;;;;;;;6.50;5.50;;;;;7.63;69.72;101987.63;5096487;27;45425;-77
2022/02/05 10:53:03;;;;;;;;;8.00;7.75;;;;;7.70;70.21;101993.38;5107895;27;45388;-77
2022/02/05 10:56:15;;;;;;;;;3.75;3.75;;;;;7.92;69.51;102021.84;5109368;27;46309;-76
2022/02/05 10:59:13;;;;;;;;;3.00;3.00;;;;;8.17;69.41;102052.25;5092033;27;45399;-76
2022/02/05 11:07:05;;;;;;;;;2.25;2.00;;;;;8.17;69.35;102006.00;5097579;27;45721;-77
2022/02/05 11:09:31;;;;;;;;;2.00;1.75;;;;;8.49;69.10;102057.00;5109862;27;45748;-76
2022/02/05 11:20:12;;;;;;;;;3.00;3.00;;;;;8.74;68.46;102054.22;5108996;27;45177;-77
2022/02/05 11:22:41;;;;;;;;;2.00;2.00;;;;;8.70;68.47;102028.63;5110799;27;44964;-77
2022/02/05 11:25:08;;;;;;;;;3.75;2.00;;;;;8.76;68.21;102034.22;5098872;27;45342;-77
2022/02/05 11:27:39;;;;;;;;;4.00;3.50;;;;;8.85;68.16;102041.78;5109285;27;45300;-76
2022/02/05 11:30:31;;;;;;;;;3.75;3.00;;;;;8.92;68.03;102043.97;5108916;27;45075;-77
2022/02/05 11:33:03;;;;;;;;;1.75;1.75;;;;;8.73;67.75;102000.88;5100638;27;45515;-77
2022/02/05 11:38:34;;;;;;;;;2.00;2.00;;;;;8.96;67.79;101997.03;5092099;27;45496;-78
2022/02/05 11:41:02;;;;;;;;;2.25;2.25;;;;;9.08;67.91;102004.75;5083837;27;45837;-77
2022/02/05 11:43:31;;;;;;;;;1.00;1.00;;;;;9.22;67.58;101998.63;5085237;28;45346;-76
2022/02/05 11:46:13;;;;;;;;;3.75;3.00;;;;;9.49;67.34;102014.19;5082087;27;44774;-78
2022/02/05 11:48:50;;;;;;;;;2.75;2.00;;;;;9.64;67.17;102008.94;5092933;27;46453;-79
2022/02/05 11:51:30;;;;;;;;;1.25;1.25;;;;;9.61;66.60;101972.03;5072917;28;45231;-78
2022/02/05 11:53:56;;;;;;;;;2.75;1.75;;;;;9.85;65.41;102017.16;5073079;27;45579;-82
2022/02/05 11:56:36;;;;;;;;;1.50;1.50;;;;;9.98;65.51;102010.09;5074367;27;45377;-77
2022/02/05 11:59:02;;;;;;;;;2.75;2.00;;;;;10.16;65.07;102004.97;5101244;27;45519;-77
2022/02/05 12:01:39;;;;;;;;;3.00;3.00;;;;;10.22;64.68;101983.41;5105237;27;45289;-77
2022/02/05 12:04:22;;;;;;;;;2.00;1.25;;;;;10.38;64.16;101988.72;5103173;27;45423;-78
2022/02/05 12:06:59;;;;;;;;;4.75;2.50;;;;;10.71;63.80;101999.28;5096650;27;45581;-77
2022/02/05 12:09:30;;;;;;;;;2.75;2.75;;;;;10.92;63.02;101996.88;5096116;27;45755;-77
2022/02/05 12:11:55;;;;;;;;;2.00;1.00;;;;;10.79;62.67;101969.03;5096080;27;45898;-76
2022/02/05 12:14:21;;;;;;;;;1.50;1.50;;;;;10.78;62.47;101967.19;5096300;27;45682;-77
2022/02/05 12:17:16;;;;;;;;;1.00;1.00;;;;;10.81;61.95;101964.75;5096182;27;45621;-77
2022/02/05 12:20:06;;;;;;;;;2.50;1.00;;;;;10.69;61.65;101953.56;5104705;27;45484;-76
2022/02/05 12:23:04;;;;;;;;;4.50;3.75;;;;;10.80;62.11;101986.63;5100710;27;45808;-77
2022/02/05 12:25:29;;;;;;;;;3.25;3.00;;;;;10.58;61.32;101946.00;5102225;27;45470;-77
2022/02/05 12:27:55;;;;;;;;;3.00;2.00;;;;;10.50;61.72;101938.56;5096418;27;46188;-88
2022/02/05 12:30:26;;;;;;;;;3.25;2.75;;;;;10.72;61.79;101983.56;5096851;27;45414;-81
2022/02/05 12:32:52;;;;;;;;;8.25;7.75;;;;;10.72;61.38;101975.69;5097924;27;45792;-90
2022/02/05 12:35:17;;;;;;;;;5.00;2.75;;;;;10.51;60.79;101943.00;5098207;27;45521;-78
2022/02/05 12:37:43;;;;;;;;;7.00;4.00;;;;;10.56;60.52;101949.41;5102403;27;45366;-79
2022/02/05 12:40:11;;;;;;;;;3.25;3.00;;;;;10.46;60.30;101933.94;5097181;27;45528;-77
2022/02/05 12:42:39;;;;;;;;;2.25;2.00;;;;;10.81;60.31;101980.53;5096110;27;45293;-89
2022/02/05 12:45:06;;;;;;;;;2.00;1.75;;;;;10.70;60.20;101935.25;5096577;27;45568;-86
2022/02/05 12:47:38;;;;;;;;;3.00;2.00;;;;;11.04;60.24;101974.78;5096794;27;45482;-81
2022/02/05 12:50:13;;;;;;;;;1.00;1.00;;;;;11.02;59.63;101951.81;5096898;27;45686;-84
2022/02/05 12:52:38;;;;;;;;;1.00;1.00;;;;;11.02;58.69;101933.41;5097101;27;45385;-85
2022/02/05 12:55:05;;;;;;;;;1.00;0.25;;;;;11.29;58.26;101953.25;5098075;27;45704;-85
2022/02/05 12:57:32;;;;;;;;;1.00;1.00;;;;;11.27;57.64;101931.19;5097121;27;45417;-86
2022/02/05 13:00:12;;;;;;;;;1.75;1.00;;;;;11.36;57.26;101925.50;5097255;27;45392;-78
2022/02/05 13:02:37;;;;;;;;;0.00;0.00;;;;;11.48;57.15;101912.97;5098796;27;45466;-80
2022/02/05 13:05:03;;;;;;;;;1.00;1.00;;;;;12.00;57.21;101947.13;5101102;27;45508;-84
2022/02/05 13:07:29;;;;;;;;;0.75;0.75;;;;;12.36;57.21;101908.44;5097297;27;45468;-79
2022/02/05 13:10:06;;;;;;;;;2.00;1.00;;;;;13.60;55.75;101905.94;5101841;27;45645;-89
2022/02/05 13:12:43;;;;;;;;;2.75;2.00;;;;;15.06;53.30;101937.94;5096992;27;45274;-78
2022/02/05 13:15:24;;;;;;;;;3.75;2.50;;;;;16.32;51.37;101948.31;5092889;27;45553;-87
2022/02/05 13:26:13;;;;;;;;;4.00;4.00;;;;;19.42;43.46;101899.91;5083343;27;45464;-78
2022/02/05 13:34:39;;;;;;;;;7.50;7.50;;;;;19.77;42.21;101904.94;5073716;27;46174;-78
2022/02/05 13:37:16;;;;;;;;;8.00;8.00;;;;;20.03;42.06;101916.88;5086218;27;45500;-78
2022/02/05 13:39:56;;;;;;;;;7.25;7.25;;;;;20.26;41.47;101901.19;5102760;27;45260;-78
2022/02/05 13:42:26;;;;;;;;;0.50;0.25;;;;;20.98;40.49;101915.44;5100517;27;46373;-79
2022/02/05 13:47:19;;;;;;;;;17.50;16.25;;;;;20.93;39.06;101897.53;5097419;27;45421;-79
2022/02/05 13:50:01;;;;;;;;;8.25;7.75;;;;;20.22;39.38;101893.13;5094599;27;45532;-78
2022/02/05 13:52:37;;;;;;;;;2.25;2.00;;;;;19.45;38.91;101913.25;5081898;27;46515;-81
2022/02/05 13:55:13;;;;;;;;;2.75;2.00;;;;;18.61;40.01;101906.34;5092776;27;45779;-78
2022/02/05 13:57:52;;;;;;;;;3.00;2.00;;;;;18.50;40.94;101908.78;5090811;27;45403;-78
2022/02/05 14:00:17;;;;;;;;;5.00;5.00;;;;;18.03;40.42;101887.41;5085263;27;45718;-78
2022/02/05 14:02:42;;;;;;;;;5.00;4.00;;;;;17.46;41.24;101893.09;5083234;27;45967;-78
2022/02/05 14:05:15;;;;;;;;;7.50;6.75;;;;;17.25;41.65;101906.75;5098235;27;45460;-79
2022/02/05 14:07:44;;;;;;;;;720.83;649.67;;;;;17.51;42.05;101898.53;5109550;27;44910;-79
2022/02/05 14:10:18;;;;;;;;;20.75;19.25;;;;;16.88;41.41;101898.63;5106823;27;45203;-77
2022/02/05 14:13:17;;;;;;;;;4.25;4.25;;;;;15.67;42.07;101855.28;5102782;27;46471;-78
2022/02/05 14:15:52;;;;;;;;;4.00;3.75;;;;;15.10;41.81;101901.03;5109719;27;45662;-78
2022/02/05 14:18:17;;;;;;;;;2.50;2.50;;;;;14.55;42.98;101901.72;5096139;27;45536;-78
2022/02/05 14:20:48;;;;;;;;;2.00;1.00;;;;;14.18;42.82;101909.97;5111555;27;45307;-78
2022/02/05 14:23:17;;;;;;;;;2.00;2.00;;;;;13.73;43.64;101902.03;5109373;27;45944;-78
2022/02/05 14:25:53;;;;;;;;;11.75;11.00;;;;;13.49;44.52;101911.59;5094507;27;46141;-82
2022/02/05 14:28:29;;;;;;;;;36.25;33.00;;;;;13.24;44.01;101901.75;5090221;27;46134;-78
2022/02/05 14:31:11;;;;;;;;;15.75;15.00;;;;;12.88;44.54;101884.38;5094031;27;45474;-78
2022/02/05 14:41:47;;;;;;;;;79.25;67.25;;;;;12.01;46.64;101868.97;5098122;27;45788;-77